Ferintosh, Canada
Current Conditions -  °F | °C
As of 7:00 AM on Thursday 23 Oct 2014 (Local Time) from CYEG Reporting Station
Scattered Clouds Scattered Clouds  
Wind Chill: 24°   Ceiling: Unl
Heat Index: 30°   Visibility: 15mi
Dew Point: 25°   Wind: 6mph
Humidity: 80%   Direction: 160°SSE
Pressure: 29.43"   Gusts: NA
Location:  52.77°N, 112.97°W
Report Text: CYEG 231300Z 16005KT 15SM FEW160 SCT240 M01/M04 A2943 RMK AC2CI2 SLP984
Loading
Personal Weather Stations






























Interactive Weather Map
Tropical Storm Tracking
New forecast layout! Learn more

10-Day Weather Forecast

Advertisements
Track Severe Weather on mobile